createdAt,value
2022-07-29T00:00:05.779Z,2.00
2022-07-29T00:01:05.742Z,1.50
2022-07-29T00:02:05.703Z,1.50
2022-07-29T00:03:05.736Z,1.70
2022-07-29T00:04:05.699Z,1.50
2022-07-29T00:05:05.608Z,1.40
2022-07-29T00:06:05.560Z,1.70
2022-07-29T00:07:05.525Z,1.50
2022-07-29T00:08:09.350Z,1.60
2022-07-29T00:09:05.450Z,1.50
2022-07-29T00:10:05.412Z,1.50
2022-07-29T00:11:05.387Z,1.50
2022-07-29T00:12:05.344Z,1.70
2022-07-29T00:13:05.305Z,1.50
2022-07-29T00:14:05.264Z,1.80
2022-07-29T00:15:05.231Z,1.60
2022-07-29T00:16:05.374Z,1.80
2022-07-29T00:17:05.156Z,1.60
2022-07-29T00:18:05.173Z,1.60
2022-07-29T00:19:05.085Z,1.50
2022-07-29T00:20:05.050Z,1.70
2022-07-29T00:21:05.012Z,1.70
2022-07-29T00:22:04.983Z,1.80
2022-07-29T00:23:04.939Z,1.70
2022-07-29T00:24:04.906Z,1.60
2022-07-29T00:25:04.866Z,1.60
2022-07-29T00:26:04.829Z,1.60
2022-07-29T00:27:04.793Z,1.50
2022-07-29T00:28:04.765Z,1.60
2022-07-29T00:29:33.057Z,1.50
2022-07-29T00:30:04.682Z,1.70
2022-07-29T00:31:04.682Z,1.80
2022-07-29T00:32:04.686Z,1.70
2022-07-29T00:33:08.951Z,1.60
2022-07-29T00:34:04.547Z,1.90
2022-07-29T00:35:04.499Z,1.70
2022-07-29T00:36:04.461Z,1.90
2022-07-29T00:37:04.426Z,1.70
2022-07-29T00:38:04.396Z,1.70
2022-07-29T00:39:04.355Z,1.70
2022-07-29T00:40:04.327Z,1.70
2022-07-29T00:41:04.293Z,1.90
2022-07-29T00:42:04.261Z,1.80
2022-07-29T00:43:04.207Z,1.60
2022-07-29T00:44:04.171Z,1.60
2022-07-29T00:45:04.136Z,1.70
2022-07-29T00:46:04.096Z,1.70
2022-07-29T00:47:04.173Z,1.60
2022-07-29T00:48:04.023Z,1.70
2022-07-29T00:49:04.068Z,1.60
2022-07-29T00:50:03.953Z,1.80
2022-07-29T00:51:03.914Z,1.60
2022-07-29T00:52:03.880Z,1.50
2022-07-29T00:53:03.848Z,1.90
2022-07-29T00:54:03.812Z,1.60
2022-07-29T00:55:08.247Z,1.90
2022-07-29T00:56:03.733Z,1.50
2022-07-29T00:57:03.693Z,1.40
2022-07-29T00:58:03.657Z,1.60
2022-07-29T00:59:03.639Z,1.60
2022-07-29T01:00:03.585Z,1.50
2022-07-29T01:01:03.617Z,1.50
2022-07-29T01:02:03.615Z,1.70
2022-07-29T01:03:03.475Z,1.60
2022-07-29T01:04:03.439Z,1.60
2022-07-29T01:05:03.415Z,1.60
2022-07-29T01:06:03.363Z,1.70
2022-07-29T01:07:03.329Z,1.50
2022-07-29T01:08:03.290Z,1.40
2022-07-29T01:09:03.254Z,1.50
2022-07-29T01:10:03.217Z,1.50
2022-07-29T01:11:03.195Z,1.70
2022-07-29T01:12:03.144Z,1.90
2022-07-29T01:13:03.109Z,1.80
2022-07-29T01:14:03.073Z,1.60
2022-07-29T01:15:03.034Z,1.60
2022-07-29T01:16:03.062Z,1.80
2022-07-29T01:17:02.961Z,1.40
2022-07-29T01:18:02.921Z,1.50
2022-07-29T01:19:02.897Z,1.70
2022-07-29T01:20:02.856Z,1.70
2022-07-29T01:21:02.828Z,1.70
2022-07-29T01:22:02.779Z,1.70
2022-07-29T01:23:02.740Z,1.70
2022-07-29T01:24:02.717Z,1.50
2022-07-29T01:25:02.676Z,1.70
2022-07-29T01:26:02.637Z,1.80
2022-07-29T01:27:02.606Z,1.80
2022-07-29T01:28:02.560Z,1.60
2022-07-29T01:29:07.428Z,1.70
2022-07-29T01:30:02.505Z,1.80
2022-07-29T01:31:02.468Z,1.60
2022-07-29T01:32:02.439Z,1.70
2022-07-29T01:33:02.382Z,1.60
2022-07-29T01:34:02.339Z,1.60
2022-07-29T01:35:02.305Z,1.80
2022-07-29T01:36:02.280Z,1.70
2022-07-29T01:37:02.227Z,1.60
2022-07-29T01:38:02.195Z,1.60
2022-07-29T01:39:02.157Z,1.60
2022-07-29T01:40:02.126Z,1.60
2022-07-29T01:41:02.105Z,1.60
2022-07-29T01:42:02.044Z,1.70
2022-07-29T01:43:02.011Z,1.60
2022-07-29T01:44:01.977Z,1.60
2022-07-29T01:45:01.946Z,1.60
2022-07-29T01:46:01.901Z,1.70
2022-07-29T01:47:01.948Z,1.50
2022-07-29T01:48:01.826Z,1.50
2022-07-29T01:49:01.840Z,1.80
2022-07-29T01:50:01.755Z,1.60
2022-07-29T01:51:01.733Z,1.60
2022-07-29T01:52:01.677Z,1.70
2022-07-29T01:53:01.643Z,1.90
2022-07-29T01:54:01.612Z,1.70
2022-07-29T01:55:01.571Z,1.50
2022-07-29T01:56:01.535Z,1.70
2022-07-29T01:57:01.507Z,1.70
2022-07-29T01:58:01.460Z,1.50
2022-07-29T01:59:01.433Z,1.70
2022-07-29T02:00:01.386Z,1.60
2022-07-29T02:01:01.351Z,1.50
2022-07-29T02:02:01.361Z,1.80
2022-07-29T02:03:01.291Z,1.50
2022-07-29T02:04:01.242Z,1.40
2022-07-29T02:05:01.260Z,1.50
2022-07-29T02:06:01.167Z,1.70
2022-07-29T02:07:01.127Z,1.50
2022-07-29T02:08:01.094Z,1.80
2022-07-29T02:09:01.069Z,1.60
2022-07-29T02:10:01.023Z,1.40
2022-07-29T02:11:00.983Z,1.50
2022-07-29T02:12:00.946Z,1.60
2022-07-29T02:13:00.909Z,1.50
2022-07-29T02:14:00.871Z,1.80
2022-07-29T02:15:00.858Z,1.50
2022-07-29T02:16:00.844Z,1.50
2022-07-29T02:17:00.763Z,1.60
2022-07-29T02:18:00.729Z,1.70
2022-07-29T02:19:00.690Z,1.50
2022-07-29T02:20:00.651Z,1.70
2022-07-29T02:21:00.630Z,1.70
2022-07-29T02:22:00.579Z,1.50
2022-07-29T02:23:00.545Z,1.70
2022-07-29T02:24:00.508Z,1.60
2022-07-29T02:25:00.892Z,1.70
2022-07-29T02:26:00.432Z,1.60
2022-07-29T02:27:00.409Z,1.50
2022-07-29T02:28:00.361Z,1.70
2022-07-29T02:29:00.320Z,1.60
2022-07-29T02:30:00.285Z,1.60
2022-07-29T02:31:00.282Z,1.60
2022-07-29T02:32:00.220Z,1.40
2022-07-29T02:33:00.172Z,1.80
2022-07-29T02:34:00.136Z,1.50
2022-07-29T02:35:00.110Z,1.60
2022-07-29T02:36:00.069Z,1.50
2022-07-29T02:37:00.024Z,1.70
2022-07-29T02:38:00.017Z,1.50
2022-07-29T02:38:59.953Z,1.60
2022-07-29T02:39:59.918Z,1.80
2022-07-29T02:40:59.875Z,1.60
2022-07-29T02:41:59.840Z,1.60
2022-07-29T02:42:59.804Z,1.70
2022-07-29T02:43:59.781Z,1.50
2022-07-29T02:44:59.730Z,1.50
2022-07-29T02:45:59.760Z,1.80
2022-07-29T02:46:59.737Z,1.60
2022-07-29T02:47:59.624Z,1.50
2022-07-29T02:48:59.675Z,1.70
2022-07-29T02:50:00.656Z,1.90
2022-07-29T02:50:59.507Z,1.90
2022-07-29T02:51:59.473Z,1.80
2022-07-29T02:52:59.441Z,2.10
2022-07-29T02:53:59.404Z,2.00
2022-07-29T02:54:59.372Z,1.70
2022-07-29T02:55:59.324Z,1.90
2022-07-29T02:56:59.292Z,1.90
2022-07-29T02:57:59.249Z,1.80
2022-07-29T02:58:59.213Z,1.80
2022-07-29T02:59:59.176Z,2.00
2022-07-29T03:00:59.148Z,2.10
2022-07-29T03:01:59.126Z,1.90
2022-07-29T03:02:59.064Z,2.10
2022-07-29T03:03:59.025Z,2.10
2022-07-29T03:04:59.015Z,2.10
2022-07-29T03:05:58.958Z,2.20
2022-07-29T03:06:58.928Z,2.50
2022-07-29T03:07:58.882Z,2.60
2022-07-29T03:09:13.256Z,2.50
2022-07-29T03:09:58.804Z,2.30
2022-07-29T03:10:58.767Z,2.40
2022-07-29T03:11:58.745Z,2.50
2022-07-29T03:12:59.078Z,2.30
2022-07-29T03:13:58.656Z,2.40
2022-07-29T03:14:58.620Z,2.60
2022-07-29T03:15:58.662Z,2.70
2022-07-29T03:16:58.542Z,2.40
2022-07-29T03:17:58.518Z,2.40
2022-07-29T03:18:58.471Z,2.10
2022-07-29T03:19:58.434Z,2.60
2022-07-29T03:20:58.421Z,2.70
2022-07-29T03:21:58.361Z,2.30
2022-07-29T03:22:58.330Z,2.40
2022-07-29T03:23:58.286Z,2.30
2022-07-29T03:24:58.245Z,2.30
2022-07-29T03:25:58.217Z,2.30
2022-07-29T03:26:58.173Z,2.10
2022-07-29T03:27:59.030Z,2.10
2022-07-29T03:28:58.108Z,2.20
2022-07-29T03:29:58.063Z,2.10
2022-07-29T03:30:58.058Z,2.20
2022-07-29T03:31:57.991Z,2.20
2022-07-29T03:32:58.124Z,2.20
2022-07-29T03:33:57.915Z,1.90
2022-07-29T03:34:57.888Z,2.10
2022-07-29T03:35:57.844Z,2.40
2022-07-29T03:36:57.804Z,2.20
2022-07-29T03:37:57.767Z,2.00
2022-07-29T03:38:57.729Z,2.00
2022-07-29T03:39:57.694Z,2.10
2022-07-29T03:40:57.672Z,2.40
2022-07-29T03:41:57.626Z,2.70
2022-07-29T03:42:57.585Z,2.60
2022-07-29T03:43:57.547Z,2.80
2022-07-29T03:44:57.505Z,2.80
2022-07-29T03:45:57.519Z,2.50
2022-07-29T03:46:57.444Z,2.30
2022-07-29T03:48:00.662Z,2.60
2022-07-29T03:48:57.651Z,2.40
2022-07-29T03:49:57.323Z,2.30
2022-07-29T03:50:57.280Z,2.40
2022-07-29T03:51:57.246Z,2.40
2022-07-29T03:52:57.222Z,3.00
2022-07-29T03:53:57.171Z,2.60
2022-07-29T03:54:57.134Z,2.80
2022-07-29T03:55:57.096Z,2.60
2022-07-29T03:56:57.057Z,2.80
2022-07-29T03:57:57.017Z,2.30
2022-07-29T03:58:56.995Z,2.90
2022-07-29T03:59:56.959Z,2.50
2022-07-29T04:00:56.905Z,2.40
2022-07-29T04:01:56.891Z,2.80
2022-07-29T04:02:56.923Z,2.40
2022-07-29T04:03:56.863Z,2.40
2022-07-29T04:04:56.763Z,2.60
2022-07-29T04:05:56.717Z,2.80
2022-07-29T04:06:56.677Z,3.00
2022-07-29T04:07:56.639Z,2.90
2022-07-29T04:08:56.599Z,3.10
2022-07-29T04:09:56.578Z,2.90
2022-07-29T04:10:56.523Z,2.60
2022-07-29T04:12:02.220Z,2.60
2022-07-29T04:12:56.447Z,2.50
2022-07-29T04:13:56.415Z,2.60
2022-07-29T04:14:56.371Z,2.70
2022-07-29T04:15:56.439Z,2.30
2022-07-29T04:16:56.302Z,2.40
2022-07-29T04:17:56.261Z,2.50
2022-07-29T04:18:56.220Z,2.40
2022-07-29T04:19:56.182Z,2.20
2022-07-29T04:20:56.141Z,2.30
2022-07-29T04:21:56.119Z,2.30
2022-07-29T04:22:56.067Z,2.10
2022-07-29T04:23:56.032Z,2.00
2022-07-29T04:24:59.103Z,2.20
2022-07-29T04:25:55.951Z,2.00
2022-07-29T04:26:55.928Z,1.70
2022-07-29T04:27:55.881Z,2.40
2022-07-29T04:28:55.834Z,2.40
2022-07-29T04:29:56.333Z,2.30
2022-07-29T04:30:55.812Z,2.00
2022-07-29T04:31:55.722Z,2.10
2022-07-29T04:32:55.694Z,2.10
2022-07-29T04:33:55.654Z,2.00
2022-07-29T04:34:55.607Z,2.00
2022-07-29T04:35:55.571Z,2.00
2022-07-29T04:36:55.535Z,2.90
2022-07-29T04:37:55.493Z,2.50
2022-07-29T04:38:55.464Z,3.20
2022-07-29T04:39:55.445Z,3.00
2022-07-29T04:40:55.379Z,2.80
2022-07-29T04:41:56.414Z,2.30
2022-07-29T04:42:55.300Z,4.90
2022-07-29T04:43:55.985Z,3.30
2022-07-29T04:44:55.235Z,4.50
2022-07-29T04:45:56.106Z,2.80
2022-07-29T04:46:55.161Z,2.60
2022-07-29T04:47:55.121Z,2.50
2022-07-29T04:48:55.136Z,2.90
2022-07-29T04:49:55.036Z,4.00
2022-07-29T04:50:55.017Z,3.60
2022-07-29T04:51:54.965Z,3.70
2022-07-29T04:52:54.939Z,3.20
2022-07-29T04:53:54.881Z,3.90
2022-07-29T04:54:54.856Z,4.00
2022-07-29T04:55:54.807Z,3.60
2022-07-29T04:56:54.766Z,3.50
2022-07-29T04:57:54.727Z,3.70
2022-07-29T04:58:54.693Z,3.80
2022-07-29T04:59:54.652Z,3.90
2022-07-29T05:00:54.633Z,3.80
2022-07-29T05:01:54.624Z,3.70
2022-07-29T05:02:54.635Z,3.40
2022-07-29T05:03:59.874Z,3.80
2022-07-29T05:04:54.458Z,3.50
2022-07-29T05:05:54.422Z,3.90
2022-07-29T05:06:54.394Z,3.60
2022-07-29T05:07:54.347Z,3.80
2022-07-29T05:08:54.304Z,4.30
2022-07-29T05:09:54.266Z,3.80
2022-07-29T05:10:54.229Z,3.90
2022-07-29T05:11:54.196Z,4.20
2022-07-29T05:12:54.162Z,4.00
2022-07-29T05:13:54.125Z,4.00
2022-07-29T05:14:54.074Z,4.00
2022-07-29T05:15:54.107Z,3.80
2022-07-29T05:16:53.999Z,3.90
2022-07-29T05:17:53.959Z,3.70
2022-07-29T05:18:53.930Z,3.60
2022-07-29T05:19:53.884Z,3.80
2022-07-29T05:20:53.853Z,3.90
2022-07-29T05:21:53.803Z,3.50
2022-07-29T05:22:53.766Z,3.60
2022-07-29T05:23:53.729Z,3.10
2022-07-29T05:24:53.693Z,3.10
2022-07-29T05:25:53.651Z,3.20
2022-07-29T05:26:53.625Z,3.60
2022-07-29T05:27:53.575Z,3.10
2022-07-29T05:28:53.536Z,3.20
2022-07-29T05:29:53.502Z,3.40
2022-07-29T05:30:53.492Z,3.10
2022-07-29T05:31:53.421Z,3.10
2022-07-29T05:32:53.392Z,3.00
2022-07-29T05:33:53.346Z,2.80
2022-07-29T05:34:53.305Z,3.20
2022-07-29T05:35:55.309Z,2.90
2022-07-29T05:36:53.227Z,2.90
2022-07-29T05:37:53.190Z,3.30
2022-07-29T05:38:53.179Z,3.00
2022-07-29T05:39:56.877Z,2.80
2022-07-29T05:40:53.073Z,2.80
2022-07-29T05:41:53.039Z,2.70
2022-07-29T05:42:53.003Z,2.60
2022-07-29T05:43:52.963Z,3.10
2022-07-29T05:44:52.938Z,2.60
2022-07-29T05:45:52.930Z,2.30
2022-07-29T05:46:52.847Z,2.70
2022-07-29T05:47:52.809Z,2.80
2022-07-29T05:48:52.812Z,2.30
2022-07-29T05:49:52.733Z,2.70
2022-07-29T05:50:52.710Z,3.00
2022-07-29T05:51:52.657Z,2.80
2022-07-29T05:52:52.623Z,2.70
2022-07-29T05:53:52.581Z,2.80
2022-07-29T05:54:52.542Z,2.80
2022-07-29T05:55:52.505Z,2.70
2022-07-29T05:56:52.475Z,2.40
2022-07-29T05:57:52.428Z,2.50
2022-07-29T05:58:52.392Z,2.70
2022-07-29T05:59:52.352Z,2.50
2022-07-29T06:00:52.323Z,2.80
2022-07-29T06:01:52.342Z,2.80
2022-07-29T06:02:52.239Z,2.40
2022-07-29T06:03:52.200Z,2.80
2022-07-29T06:04:52.197Z,2.60
2022-07-29T06:05:52.127Z,2.50
2022-07-29T06:06:52.090Z,2.70
2022-07-29T06:07:52.080Z,2.50
2022-07-29T06:08:52.017Z,2.40
2022-07-29T06:09:51.976Z,2.30
2022-07-29T06:10:51.938Z,2.50
2022-07-29T06:11:51.897Z,2.40
2022-07-29T06:12:51.861Z,2.50
2022-07-29T06:13:51.831Z,2.20
2022-07-29T06:14:54.211Z,2.30
2022-07-29T06:15:51.802Z,2.20
2022-07-29T06:16:51.741Z,2.30
2022-07-29T06:17:59.099Z,2.50
2022-07-29T06:18:51.645Z,2.30
2022-07-29T06:19:51.597Z,2.50
2022-07-29T06:20:51.561Z,2.70
2022-07-29T06:21:51.522Z,2.40
2022-07-29T06:22:51.489Z,2.50
2022-07-29T06:23:51.451Z,2.70
2022-07-29T06:24:51.423Z,2.50
2022-07-29T06:25:51.374Z,2.50
2022-07-29T06:26:51.340Z,2.40
2022-07-29T06:27:51.298Z,2.50
2022-07-29T06:28:51.267Z,2.70
2022-07-29T06:29:51.225Z,2.50
2022-07-29T06:30:51.267Z,2.60
2022-07-29T06:31:51.152Z,2.40
2022-07-29T06:32:51.112Z,2.90
2022-07-29T06:33:51.084Z,2.90
2022-07-29T06:34:51.042Z,3.00
2022-07-29T06:35:53.306Z,2.90
2022-07-29T06:36:50.978Z,2.90
2022-07-29T06:37:50.928Z,2.90
2022-07-29T06:38:51.510Z,3.20
2022-07-29T06:39:50.855Z,2.70
2022-07-29T06:40:50.820Z,3.00
2022-07-29T06:41:50.779Z,3.00
2022-07-29T06:42:50.757Z,3.10
2022-07-29T06:43:54.394Z,3.10
2022-07-29T06:44:50.671Z,3.10
2022-07-29T06:45:50.661Z,3.20
2022-07-29T06:46:50.598Z,3.40
2022-07-29T06:47:50.572Z,3.40
2022-07-29T06:48:50.592Z,3.60
2022-07-29T06:49:50.482Z,3.40
2022-07-29T06:50:50.450Z,3.50
2022-07-29T06:51:50.408Z,3.20
2022-07-29T06:52:50.374Z,3.30
2022-07-29T06:53:59.794Z,3.80
2022-07-29T06:54:50.297Z,3.30
2022-07-29T06:55:50.261Z,3.50
2022-07-29T06:56:50.225Z,3.30
2022-07-29T06:57:50.186Z,3.30
2022-07-29T06:58:50.153Z,3.10
2022-07-29T06:59:50.130Z,3.30
2022-07-29T07:00:50.138Z,3.30
2022-07-29T07:01:50.096Z,3.70
2022-07-29T07:02:50.074Z,3.60
2022-07-29T07:03:50.160Z,3.50
2022-07-29T07:04:49.928Z,3.80
2022-07-29T07:05:49.919Z,3.90
2022-07-29T07:06:49.859Z,3.50
2022-07-29T07:07:49.828Z,3.90
2022-07-29T07:08:49.780Z,3.70
2022-07-29T07:09:49.742Z,4.00
2022-07-29T07:10:49.706Z,3.80
2022-07-29T07:11:50.250Z,3.60
2022-07-29T07:12:49.635Z,3.70
2022-07-29T07:13:49.617Z,3.70
2022-07-29T07:14:49.558Z,4.10
2022-07-29T07:15:49.530Z,4.10
2022-07-29T07:16:49.548Z,4.00
2022-07-29T07:17:49.447Z,3.80
2022-07-29T07:18:49.413Z,3.90
2022-07-29T07:19:49.386Z,4.20
2022-07-29T07:20:49.339Z,3.70
2022-07-29T07:21:49.307Z,4.00
2022-07-29T07:22:49.265Z,4.00
2022-07-29T07:23:49.225Z,3.90
2022-07-29T07:24:49.188Z,4.20
2022-07-29T07:25:49.163Z,4.00
2022-07-29T07:26:49.133Z,3.80
2022-07-29T07:27:49.082Z,3.90
2022-07-29T07:28:49.042Z,3.90
2022-07-29T07:29:49.007Z,4.00
2022-07-29T07:30:48.972Z,3.90
2022-07-29T07:31:48.995Z,4.00
2022-07-29T07:32:48.909Z,4.30
2022-07-29T07:33:48.859Z,4.50
2022-07-29T07:34:48.823Z,4.20
2022-07-29T07:35:48.790Z,4.20
2022-07-29T07:36:48.771Z,5.00
2022-07-29T07:37:48.713Z,4.70
2022-07-29T07:38:48.689Z,4.70
2022-07-29T07:39:48.638Z,4.60
2022-07-29T07:40:48.600Z,4.80
2022-07-29T07:41:48.564Z,4.70
2022-07-29T07:42:48.527Z,5.00
2022-07-29T07:43:48.492Z,5.20
2022-07-29T07:45:12.110Z,5.00
2022-07-29T07:45:48.444Z,5.10
2022-07-29T07:46:48.383Z,5.20
2022-07-29T07:47:48.343Z,5.30
2022-07-29T07:48:48.342Z,5.40
2022-07-29T07:49:48.272Z,5.10
2022-07-29T07:50:48.246Z,5.10
2022-07-29T07:51:50.705Z,4.70
2022-07-29T07:52:48.162Z,4.80
2022-07-29T07:53:48.123Z,5.00
2022-07-29T07:54:48.087Z,4.70
2022-07-29T07:56:09.407Z,5.00
2022-07-29T07:56:48.027Z,4.50
2022-07-29T07:57:47.978Z,5.00
2022-07-29T07:58:47.948Z,5.10
2022-07-29T07:59:47.896Z,4.90
2022-07-29T08:00:47.879Z,4.80
2022-07-29T08:01:55.723Z,5.50
2022-07-29T08:02:47.859Z,4.80
2022-07-29T08:03:47.747Z,5.00
2022-07-29T08:04:47.723Z,5.10
2022-07-29T08:05:47.680Z,4.60
2022-07-29T08:06:47.637Z,4.60
2022-07-29T08:07:47.627Z,4.40
2022-07-29T08:08:47.570Z,4.70
2022-07-29T08:09:47.527Z,4.40
2022-07-29T08:10:47.502Z,4.50
2022-07-29T08:11:52.239Z,4.50
2022-07-29T08:12:47.430Z,4.70
2022-07-29T08:13:47.377Z,4.50
2022-07-29T08:14:47.340Z,4.70
2022-07-29T08:15:47.325Z,4.70
2022-07-29T08:16:47.327Z,4.30
2022-07-29T08:17:47.229Z,4.80
2022-07-29T08:18:47.191Z,4.70
2022-07-29T08:19:47.158Z,4.60
2022-07-29T08:20:47.122Z,4.60
2022-07-29T08:21:47.091Z,4.70
2022-07-29T08:22:47.048Z,4.80
2022-07-29T08:23:50.566Z,4.60
2022-07-29T08:24:46.967Z,4.70
2022-07-29T08:25:46.927Z,4.90
2022-07-29T08:26:46.894Z,4.80
2022-07-29T08:27:46.867Z,4.60
2022-07-29T08:28:47.062Z,4.30
2022-07-29T08:29:46.917Z,4.80
2022-07-29T08:30:46.747Z,4.60
2022-07-29T08:31:46.758Z,4.70
2022-07-29T08:32:55.236Z,4.80
2022-07-29T08:33:46.649Z,4.50
2022-07-29T08:34:46.595Z,4.70
2022-07-29T08:35:46.576Z,4.30
2022-07-29T08:36:51.434Z,4.10
2022-07-29T08:37:46.481Z,4.00
2022-07-29T08:38:46.459Z,4.10
2022-07-29T08:39:46.408Z,3.90
2022-07-29T08:40:46.369Z,4.10
2022-07-29T08:41:57.447Z,3.60
2022-07-29T08:42:46.298Z,3.70
2022-07-29T08:43:46.257Z,3.90
2022-07-29T08:44:46.233Z,3.90
2022-07-29T08:45:48.119Z,4.00
2022-07-29T08:46:46.146Z,4.10
2022-07-29T08:47:46.110Z,4.10
2022-07-29T08:48:46.103Z,3.70
2022-07-29T08:49:46.034Z,4.10
2022-07-29T08:50:46.560Z,3.60
2022-07-29T08:51:49.403Z,3.80
2022-07-29T08:52:45.923Z,3.60
2022-07-29T08:53:45.884Z,3.80
2022-07-29T08:54:45.849Z,3.90
2022-07-29T08:55:45.812Z,4.00
2022-07-29T08:56:45.778Z,4.50
2022-07-29T08:57:51.023Z,4.20
2022-07-29T08:58:48.749Z,4.50
2022-07-29T08:59:45.664Z,4.40
2022-07-29T09:00:45.720Z,4.50
2022-07-29T09:01:45.668Z,4.70
2022-07-29T09:02:46.651Z,4.50
2022-07-29T09:03:45.574Z,4.40
2022-07-29T09:04:45.477Z,4.80
2022-07-29T09:05:48.106Z,4.50
2022-07-29T09:06:45.407Z,4.40
2022-07-29T09:07:45.368Z,4.30
2022-07-29T09:08:55.185Z,4.30
2022-07-29T09:09:45.296Z,4.20
2022-07-29T09:10:45.301Z,4.00
2022-07-29T09:11:45.217Z,4.20
2022-07-29T09:12:45.182Z,3.60
2022-07-29T09:13:45.145Z,3.90
2022-07-29T09:14:45.123Z,3.50
2022-07-29T09:15:45.072Z,3.70
2022-07-29T09:16:53.276Z,3.40
2022-07-29T09:17:44.997Z,3.80
2022-07-29T09:18:44.963Z,3.50
2022-07-29T09:19:45.495Z,3.50
2022-07-29T09:20:44.899Z,3.40
2022-07-29T09:21:44.849Z,3.40
2022-07-29T09:22:44.824Z,3.60
2022-07-29T09:23:44.793Z,3.50
2022-07-29T09:24:44.744Z,3.60
2022-07-29T09:25:44.702Z,3.40
2022-07-29T09:26:44.668Z,4.00
2022-07-29T09:27:44.630Z,3.10
2022-07-29T09:28:44.604Z,3.30
2022-07-29T09:29:44.582Z,3.40
2022-07-29T09:30:44.522Z,3.30
2022-07-29T09:31:44.508Z,3.40
2022-07-29T09:32:44.448Z,3.20
2022-07-29T09:33:44.422Z,3.40
2022-07-29T09:34:44.377Z,3.10
2022-07-29T09:35:44.338Z,3.50
2022-07-29T09:36:44.305Z,3.40
2022-07-29T09:37:44.269Z,3.10
2022-07-29T09:38:44.231Z,3.00
2022-07-29T09:39:44.207Z,2.90
2022-07-29T09:40:44.159Z,2.80
2022-07-29T09:41:44.124Z,3.10
2022-07-29T09:42:44.091Z,3.10
2022-07-29T09:43:44.053Z,3.00
2022-07-29T09:44:44.017Z,3.10
2022-07-29T09:45:43.988Z,2.80
2022-07-29T09:46:43.989Z,3.00
2022-07-29T09:47:43.913Z,2.90
2022-07-29T09:48:43.909Z,3.30
2022-07-29T09:49:43.837Z,2.70
2022-07-29T09:50:43.802Z,2.90
2022-07-29T09:51:43.777Z,3.00
2022-07-29T09:52:43.742Z,2.80
2022-07-29T09:53:43.693Z,2.90
2022-07-29T09:54:43.658Z,3.10
2022-07-29T09:55:43.623Z,2.90
2022-07-29T09:56:43.599Z,2.80
2022-07-29T09:57:43.553Z,3.10
2022-07-29T09:58:43.515Z,3.00
2022-07-29T09:59:50.073Z,3.30
2022-07-29T10:00:43.484Z,3.00
2022-07-29T10:01:43.406Z,3.20
2022-07-29T10:02:43.384Z,3.00
2022-07-29T10:03:43.385Z,2.90
2022-07-29T10:04:43.324Z,2.70
2022-07-29T10:05:43.264Z,3.00
2022-07-29T10:06:43.229Z,2.90
2022-07-29T10:07:43.192Z,2.80
2022-07-29T10:08:43.167Z,3.50
2022-07-29T10:09:43.121Z,3.30
2022-07-29T10:10:43.088Z,3.10
2022-07-29T10:11:48.137Z,2.80
2022-07-29T10:12:43.010Z,3.20
2022-07-29T10:13:42.978Z,3.00
2022-07-29T10:14:42.957Z,3.10
2022-07-29T10:15:42.914Z,3.20
2022-07-29T10:16:42.951Z,2.90
2022-07-29T10:17:42.832Z,3.00
2022-07-29T10:18:42.805Z,3.20
2022-07-29T10:19:42.770Z,3.30
2022-07-29T10:20:42.766Z,3.30
2022-07-29T10:21:42.704Z,3.40
2022-07-29T10:22:53.199Z,3.00
2022-07-29T10:23:46.561Z,3.30
2022-07-29T10:24:42.581Z,3.40
2022-07-29T10:25:46.170Z,3.50
2022-07-29T10:26:42.520Z,3.40
2022-07-29T10:27:42.478Z,3.30
2022-07-29T10:28:42.437Z,3.70
2022-07-29T10:29:42.402Z,3.50
2022-07-29T10:30:42.364Z,3.30
2022-07-29T10:31:42.408Z,3.40
2022-07-29T10:32:42.292Z,3.40
2022-07-29T10:33:42.259Z,3.40
2022-07-29T10:34:42.220Z,3.50
2022-07-29T10:35:42.186Z,3.30
2022-07-29T10:36:43.307Z,3.40
2022-07-29T10:37:45.795Z,3.20
2022-07-29T10:38:45.640Z,3.30
2022-07-29T10:39:45.128Z,3.70
2022-07-29T10:40:42.007Z,3.20
2022-07-29T10:41:43.822Z,3.70
2022-07-29T10:42:41.936Z,3.40
2022-07-29T10:43:42.450Z,3.80
2022-07-29T10:44:41.872Z,4.40
2022-07-29T10:45:41.842Z,3.90
2022-07-29T10:46:41.899Z,3.80
2022-07-29T10:47:41.760Z,4.40
2022-07-29T10:48:41.727Z,4.40
2022-07-29T10:49:41.687Z,4.60
2022-07-29T10:50:41.664Z,4.60
2022-07-29T10:51:41.617Z,4.60
2022-07-29T10:52:41.578Z,4.30
2022-07-29T10:53:41.547Z,4.60
2022-07-29T10:54:43.908Z,4.40
2022-07-29T10:55:43.127Z,4.40
2022-07-29T10:56:41.450Z,4.80
2022-07-29T10:57:53.463Z,3.80
2022-07-29T10:58:41.367Z,4.40
2022-07-29T10:59:41.336Z,4.40
2022-07-29T11:00:41.300Z,4.20
2022-07-29T11:01:41.320Z,4.00
2022-07-29T11:02:43.502Z,4.00
2022-07-29T11:03:41.230Z,4.20
2022-07-29T11:04:41.157Z,4.10
2022-07-29T11:05:41.124Z,4.30
2022-07-29T11:06:42.782Z,4.00
2022-07-29T11:07:45.718Z,4.10
2022-07-29T11:08:41.015Z,4.30
2022-07-29T11:09:40.981Z,3.90
2022-07-29T11:10:40.951Z,4.20
2022-07-29T11:11:40.912Z,4.20
2022-07-29T11:12:40.888Z,3.70
2022-07-29T11:13:41.445Z,4.10
2022-07-29T11:14:40.808Z,3.70
2022-07-29T11:15:40.789Z,4.10
2022-07-29T11:16:40.738Z,3.70
2022-07-29T11:17:51.916Z,4.00
2022-07-29T11:18:40.674Z,3.80
2022-07-29T11:19:42.654Z,3.90
2022-07-29T11:20:40.617Z,3.40
2022-07-29T11:21:54.124Z,3.60
2022-07-29T11:22:43.043Z,3.20
2022-07-29T11:23:42.876Z,3.40
2022-07-29T11:24:50.449Z,3.30
2022-07-29T11:25:50.266Z,3.20
2022-07-29T11:26:40.406Z,3.20
2022-07-29T11:27:40.417Z,3.10
2022-07-29T11:28:40.341Z,3.00
2022-07-29T11:29:40.302Z,3.10
2022-07-29T11:30:40.268Z,3.10
2022-07-29T11:31:40.255Z,3.30
2022-07-29T11:32:40.200Z,2.90
2022-07-29T11:33:55.956Z,3.00
2022-07-29T11:34:40.134Z,3.30
2022-07-29T11:35:40.108Z,2.70
2022-07-29T11:36:40.070Z,2.90
2022-07-29T11:37:42.537Z,2.60
2022-07-29T11:38:41.621Z,2.90
2022-07-29T11:39:39.974Z,3.00
2022-07-29T11:40:39.943Z,2.90
2022-07-29T11:41:39.910Z,2.70
2022-07-29T11:42:41.901Z,2.90
2022-07-29T11:43:39.844Z,2.60
2022-07-29T11:44:39.816Z,2.90
2022-07-29T11:45:43.113Z,2.80
2022-07-29T11:46:39.746Z,2.60
2022-07-29T11:47:39.922Z,2.50
2022-07-29T11:48:39.710Z,3.00
2022-07-29T11:49:39.651Z,2.80
2022-07-29T11:50:44.405Z,2.70
2022-07-29T11:52:50.106Z,2.60
2022-07-29T11:53:39.535Z,2.50
2022-07-29T11:54:58.150Z,2.60
2022-07-29T11:55:51.417Z,2.40
2022-07-29T11:56:39.431Z,2.70
2022-07-29T11:57:39.523Z,2.50
2022-07-29T11:58:39.375Z,2.70
2022-07-29T11:59:39.351Z,2.50
2022-07-29T12:00:39.308Z,2.80
2022-07-29T12:01:39.276Z,2.20
2022-07-29T12:02:39.519Z,2.90
2022-07-29T12:03:39.269Z,2.60
2022-07-29T12:04:39.185Z,2.80
2022-07-29T12:05:39.153Z,2.50
2022-07-29T12:06:39.125Z,2.60
2022-07-29T12:07:39.284Z,2.40
2022-07-29T12:08:39.060Z,2.40
2022-07-29T12:09:40.166Z,2.60
2022-07-29T12:10:39.006Z,2.50
2022-07-29T12:11:38.972Z,2.40
2022-07-29T12:12:38.940Z,2.40
2022-07-29T12:13:38.910Z,2.30
2022-07-29T12:14:38.894Z,2.60
2022-07-29T12:15:46.310Z,2.50
2022-07-29T12:16:38.854Z,2.40
2022-07-29T12:17:38.800Z,2.40
2022-07-29T12:18:38.923Z,2.30
2022-07-29T12:19:38.743Z,2.30
2022-07-29T12:20:38.716Z,2.50
2022-07-29T12:21:38.675Z,2.50
2022-07-29T12:22:38.644Z,2.60
2022-07-29T12:23:38.617Z,2.50
2022-07-29T12:24:38.593Z,2.40
2022-07-29T12:25:38.557Z,2.70
2022-07-29T12:26:40.367Z,2.60
2022-07-29T12:27:40.329Z,2.30
2022-07-29T12:28:38.475Z,2.50
2022-07-29T12:29:38.444Z,2.40
2022-07-29T12:30:38.431Z,2.60
2022-07-29T12:31:42.179Z,2.70
2022-07-29T12:32:38.413Z,2.70
2022-07-29T12:33:38.328Z,2.60
2022-07-29T12:34:38.291Z,2.70
2022-07-29T12:35:38.259Z,2.90
2022-07-29T12:36:38.238Z,2.90
2022-07-29T12:37:40.971Z,2.70
2022-07-29T12:38:38.164Z,2.80
2022-07-29T12:39:38.136Z,2.80
2022-07-29T12:40:38.105Z,2.50
2022-07-29T12:41:38.071Z,2.70
2022-07-29T12:42:38.056Z,2.60
2022-07-29T12:43:38.011Z,3.10
2022-07-29T12:44:37.979Z,3.10
2022-07-29T12:45:37.950Z,3.30
2022-07-29T12:46:37.958Z,2.60
2022-07-29T12:47:37.888Z,2.70
2022-07-29T12:48:37.920Z,2.60
2022-07-29T12:49:37.970Z,2.80
2022-07-29T12:50:37.800Z,2.60
2022-07-29T12:51:37.769Z,2.30
2022-07-29T12:52:37.737Z,2.70
2022-07-29T12:53:37.707Z,2.70
2022-07-29T12:54:37.690Z,2.60
2022-07-29T12:55:37.651Z,2.60
2022-07-29T12:56:45.270Z,2.70
2022-07-29T12:57:37.589Z,2.50
2022-07-29T12:58:37.561Z,2.60
2022-07-29T12:59:37.542Z,2.50
2022-07-29T13:00:37.583Z,2.50
2022-07-29T13:01:37.469Z,2.50
2022-07-29T13:02:37.700Z,2.90
2022-07-29T13:03:37.419Z,2.70
2022-07-29T13:04:37.383Z,2.60
2022-07-29T13:05:37.367Z,2.70
2022-07-29T13:06:37.327Z,2.40
2022-07-29T13:07:53.956Z,2.70
2022-07-29T13:08:37.265Z,2.70
2022-07-29T13:09:37.241Z,2.60
2022-07-29T13:10:37.209Z,2.50
2022-07-29T13:11:37.196Z,2.60
2022-07-29T13:12:37.157Z,2.90
2022-07-29T13:13:37.126Z,2.80
2022-07-29T13:14:37.096Z,2.70
2022-07-29T13:15:37.066Z,2.60
2022-07-29T13:16:37.090Z,2.60
2022-07-29T13:17:37.019Z,2.70
2022-07-29T13:18:36.998Z,2.60